createdAt,value
2022-10-11T00:00:10.111Z,100816.69
2022-10-11T00:02:36.668Z,100820.91
2022-10-11T00:05:03.676Z,100810.81
2022-10-11T00:07:30.418Z,100821.72
2022-10-11T00:09:57.036Z,100818.03
2022-10-11T00:12:23.572Z,100822.47
2022-10-11T00:14:50.225Z,100824.34
2022-10-11T00:17:16.796Z,100835.41
2022-10-11T00:19:43.347Z,100848.59
2022-10-11T00:22:10.053Z,100852.75
2022-10-11T00:24:36.650Z,100856.19
2022-10-11T00:33:08.873Z,100861.28
2022-10-11T00:35:35.966Z,100851.78
2022-10-11T00:38:02.967Z,100854.69
2022-10-11T00:40:29.962Z,100860.53
2022-10-11T00:42:56.858Z,100848.41
2022-10-11T00:45:26.674Z,100873.69
2022-10-11T00:48:00.674Z,100864.31
2022-10-11T00:50:31.544Z,100875.09
2022-10-11T00:53:03.482Z,100864.75
2022-10-11T00:55:36.731Z,100876.06
2022-10-11T00:58:03.613Z,100889.06
2022-10-11T01:00:30.232Z,100888.28
2022-10-11T01:02:57.083Z,100881.81
2022-10-11T01:05:29.617Z,100876.91
2022-10-11T01:07:59.098Z,100884.78
2022-10-11T01:10:26.710Z,100899.31
2022-10-11T01:13:25.508Z,100896.22
2022-10-11T01:16:07.971Z,100894.53
2022-10-11T01:18:44.273Z,100904.72
2022-10-11T01:21:10.914Z,100905.75
2022-10-11T01:23:46.397Z,100904.28
2022-10-11T01:26:41.462Z,100906.81
2022-10-11T01:29:26.427Z,100909.97
2022-10-11T01:32:03.816Z,100908.69
2022-10-11T01:34:52.986Z,100910.00
2022-10-11T01:37:28.319Z,100913.03
2022-10-11T01:40:02.522Z,100911.69
2022-10-11T01:42:30.227Z,100921.00
2022-10-11T01:44:58.821Z,100928.53
2022-10-11T01:47:26.193Z,100937.06
2022-10-11T01:49:57.150Z,100919.69
2022-10-11T01:52:26.605Z,100928.81
2022-10-11T01:55:09.891Z,100927.34
2022-10-11T01:57:42.882Z,100941.03
2022-10-11T02:00:22.795Z,100928.69
2022-10-11T02:03:19.491Z,100937.44
2022-10-11T02:06:01.135Z,100939.47
2022-10-11T02:08:53.110Z,100941.16
2022-10-11T02:11:27.635Z,100937.78
2022-10-11T02:14:03.483Z,100945.97
2022-10-11T02:17:04.020Z,100945.66
2022-10-11T02:19:36.754Z,100945.72
2022-10-11T02:22:08.411Z,100958.63
2022-10-11T02:24:38.151Z,100949.31
2022-10-11T02:27:06.112Z,100955.47
2022-10-11T02:29:37.819Z,100965.50
2022-10-11T02:32:05.967Z,100954.56
2022-10-11T02:34:40.102Z,100945.94
2022-10-11T02:37:21.561Z,100967.66
2022-10-11T02:40:02.520Z,100966.06
2022-10-11T02:42:37.117Z,100971.00
2022-10-11T02:45:12.099Z,100969.94
2022-10-11T02:47:40.813Z,100979.69
2022-10-11T02:50:07.833Z,100965.13
2022-10-11T02:52:34.391Z,100969.16
2022-10-11T02:55:00.939Z,100966.88
2022-10-11T02:57:27.471Z,100974.38
2022-10-11T02:59:54.063Z,100979.13
2022-10-11T03:02:20.735Z,100976.38
2022-10-11T03:04:47.540Z,100976.69
2022-10-11T03:07:14.745Z,100975.28
2022-10-11T03:09:41.376Z,100980.66
2022-10-11T03:12:08.263Z,100983.47
2022-10-11T03:14:34.799Z,100990.22
2022-10-11T03:17:23.851Z,100988.16
2022-10-11T03:19:48.325Z,100994.94
2022-10-11T03:22:14.897Z,101002.41
2022-10-11T03:24:41.488Z,101003.94
2022-10-11T03:27:08.049Z,100994.38
2022-10-11T03:29:34.599Z,100996.16
2022-10-11T03:32:01.239Z,101003.25
2022-10-11T03:34:27.877Z,100997.00
2022-10-11T03:36:54.510Z,101003.44
2022-10-11T03:39:22.705Z,101007.53
2022-10-11T03:41:49.365Z,101011.44
2022-10-11T03:44:16.005Z,101024.13
2022-10-11T03:46:42.602Z,101024.44
2022-10-11T03:49:09.225Z,101020.47
2022-10-11T03:51:36.418Z,101021.69
2022-10-11T03:54:03.100Z,101032.53
2022-10-11T03:56:29.636Z,101010.13
2022-10-11T03:58:56.278Z,101024.03
2022-10-11T04:01:22.893Z,101022.69
2022-10-11T04:03:49.539Z,101018.69
2022-10-11T04:06:16.189Z,101028.81
2022-10-11T04:08:42.793Z,101030.78
2022-10-11T04:11:09.420Z,101026.59
2022-10-11T04:13:36.434Z,101032.66
2022-10-11T04:16:03.461Z,101033.59
2022-10-11T04:18:30.365Z,101042.03
2022-10-11T04:20:56.961Z,101047.53
2022-10-11T04:23:23.667Z,101046.28
2022-10-11T04:25:50.333Z,101035.00
2022-10-11T04:28:16.919Z,101053.22
2022-10-11T04:30:43.825Z,101052.38
2022-10-11T04:33:11.517Z,101048.13
2022-10-11T04:35:38.385Z,101061.44
2022-10-11T04:38:05.000Z,101049.56
2022-10-11T04:40:32.550Z,101056.34
2022-10-11T04:42:59.111Z,101061.13
2022-10-11T04:45:26.297Z,101060.22
2022-10-11T04:47:52.891Z,101053.31
2022-10-11T04:50:19.557Z,101067.44
2022-10-11T04:52:46.813Z,101068.72
2022-10-11T04:55:14.178Z,101074.63
2022-10-11T04:57:40.768Z,101078.66
2022-10-11T05:00:07.986Z,101067.44
2022-10-11T05:02:34.627Z,101065.94
2022-10-11T05:05:01.262Z,101089.59
2022-10-11T05:07:27.844Z,101078.78
2022-10-11T05:09:54.602Z,101093.78
2022-10-11T05:12:21.158Z,101092.91
2022-10-11T05:14:47.761Z,101097.22
2022-10-11T05:17:14.381Z,101106.00
2022-10-11T05:19:41.043Z,101101.75
2022-10-11T05:22:07.638Z,101097.72
2022-10-11T05:24:34.302Z,101105.63
2022-10-11T05:27:03.323Z,101106.63
2022-10-11T05:29:30.259Z,101112.00
2022-10-11T05:31:56.905Z,101117.41
2022-10-11T05:34:23.406Z,101118.84
2022-10-11T05:36:50.065Z,101115.59
2022-10-11T05:39:16.601Z,101127.34
2022-10-11T05:41:43.280Z,101129.28
2022-10-11T05:44:09.870Z,101136.81
2022-10-11T05:46:36.524Z,101145.63
2022-10-11T05:49:03.219Z,101150.06
2022-10-11T05:51:29.848Z,101152.22
2022-10-11T05:53:56.454Z,101146.59
2022-10-11T05:56:24.994Z,101153.25
2022-10-11T05:58:52.281Z,101151.13
2022-10-11T06:01:23.138Z,101151.91
2022-10-11T06:03:50.717Z,101161.63
2022-10-11T06:06:17.964Z,101162.53
2022-10-11T06:08:45.453Z,101157.63
2022-10-11T06:11:13.319Z,101166.53
2022-10-11T06:13:40.855Z,101158.19
2022-10-11T06:16:08.234Z,101165.56
2022-10-11T06:18:35.001Z,101162.88
2022-10-11T06:21:01.826Z,101163.88
2022-10-11T06:23:28.546Z,101177.28
2022-10-11T06:26:11.437Z,101174.91
2022-10-11T06:28:58.949Z,101173.13
2022-10-11T06:31:25.806Z,101178.84
2022-10-11T06:33:52.444Z,101174.53
2022-10-11T06:36:19.173Z,101186.25
2022-10-11T06:38:45.850Z,101182.63
2022-10-11T06:41:21.095Z,101178.81
2022-10-11T06:43:49.894Z,101195.47
2022-10-11T06:46:17.863Z,101205.97
2022-10-11T06:48:45.897Z,101209.22
2022-10-11T06:51:14.456Z,101209.41
2022-10-11T06:53:41.258Z,101214.19
2022-10-11T06:56:11.415Z,101228.19
2022-10-11T06:58:39.303Z,101225.22
2022-10-11T07:01:10.409Z,101226.88
2022-10-11T07:03:37.538Z,101231.06
2022-10-11T07:06:10.617Z,101236.94
2022-10-11T07:08:38.252Z,101227.25
2022-10-11T07:11:17.891Z,101240.44
2022-10-11T07:13:49.864Z,101236.56
2022-10-11T07:16:16.925Z,101250.06
2022-10-11T07:18:43.570Z,101256.31
2022-10-11T07:21:15.674Z,101270.78
2022-10-11T07:23:42.700Z,101259.06
2022-10-11T07:26:10.979Z,101263.34
2022-10-11T07:28:38.549Z,101257.25
2022-10-11T07:31:26.930Z,101260.50
2022-10-11T07:33:53.809Z,101279.56
2022-10-11T07:36:20.650Z,101286.38
2022-10-11T07:38:50.345Z,101280.41
2022-10-11T07:41:17.452Z,101286.91
2022-10-11T07:43:46.910Z,101279.75
2022-10-11T07:46:14.217Z,101294.59
2022-10-11T07:48:40.925Z,101295.31
2022-10-11T07:51:11.623Z,101285.09
2022-10-11T07:53:42.959Z,101302.81
2022-10-11T07:56:14.895Z,101306.59
2022-10-11T07:58:42.588Z,101290.75
2022-10-11T08:01:10.619Z,101298.94
2022-10-11T08:03:38.082Z,101315.88
2022-10-11T08:06:07.698Z,101295.31
2022-10-11T08:08:35.556Z,101304.03
2022-10-11T08:11:02.266Z,101309.53
2022-10-11T08:13:29.054Z,101304.69
2022-10-11T08:15:55.633Z,101322.16
2022-10-11T08:18:22.403Z,101312.88
2022-10-11T08:20:48.963Z,101314.72
2022-10-11T08:23:16.856Z,101335.75
2022-10-11T08:25:47.508Z,101328.22
2022-10-11T08:28:18.533Z,101340.53
2022-10-11T08:30:54.267Z,101329.00
2022-10-11T08:33:23.015Z,101330.13
2022-10-11T08:35:50.475Z,101329.00
2022-10-11T08:38:18.002Z,101328.59
2022-10-11T08:40:49.596Z,101332.78
2022-10-11T08:43:28.366Z,101336.31
2022-10-11T08:45:58.554Z,101333.19
2022-10-11T08:48:41.989Z,101338.00
2022-10-11T08:51:24.930Z,101346.81
2022-10-11T08:54:12.567Z,101333.53
2022-10-11T08:56:41.746Z,101359.44
2022-10-11T08:59:11.229Z,101345.47
2022-10-11T09:01:44.638Z,101346.72
2022-10-11T09:04:14.745Z,101370.25
2022-10-11T09:06:55.631Z,101354.34
2022-10-11T09:09:48.850Z,101366.56
2022-10-11T09:12:32.303Z,101360.81
2022-10-11T09:15:03.169Z,101373.06
2022-10-11T09:17:42.877Z,101368.88
2022-10-11T09:20:18.169Z,101370.56
2022-10-11T09:23:11.598Z,101349.22
2022-10-11T09:25:49.392Z,101367.31
2022-10-11T09:28:35.147Z,101371.41
2022-10-11T09:31:01.954Z,101384.66
2022-10-11T09:33:31.369Z,101374.25
2022-10-11T09:35:58.608Z,101379.56
2022-10-11T09:38:37.345Z,101368.16
2022-10-11T09:41:15.029Z,101391.13
2022-10-11T09:43:46.046Z,101384.25
2022-10-11T09:46:30.865Z,101379.00
2022-10-11T09:49:00.714Z,101378.53
2022-10-11T09:51:28.120Z,101370.66
2022-10-11T09:54:04.309Z,101377.91
2022-10-11T09:56:33.673Z,101386.72
2022-10-11T09:59:21.971Z,101398.94
2022-10-11T10:01:49.044Z,101391.19
2022-10-11T10:04:18.954Z,101389.50
2022-10-11T10:06:45.678Z,101386.38
2022-10-11T10:09:24.586Z,101379.50
2022-10-11T10:11:51.685Z,101409.69
2022-10-11T10:14:30.435Z,101430.84
2022-10-11T10:17:06.554Z,101402.03
2022-10-11T10:19:44.710Z,101416.59
2022-10-11T10:22:21.210Z,101405.16
2022-10-11T10:24:50.566Z,101421.53
2022-10-11T10:27:21.605Z,101419.50
2022-10-11T10:30:09.483Z,101410.25
2022-10-11T10:32:57.872Z,101426.03
2022-10-11T10:35:27.508Z,101424.53
2022-10-11T10:38:01.011Z,101423.53
2022-10-11T10:40:37.642Z,101447.44
2022-10-11T10:43:04.354Z,101434.78
2022-10-11T10:46:28.905Z,101437.50
2022-10-11T10:52:03.159Z,101444.13
2022-10-11T10:54:35.478Z,101441.09
2022-10-11T10:57:11.313Z,101443.38
2022-10-11T10:59:53.154Z,101447.97
2022-10-11T11:02:40.645Z,101440.91
2022-10-11T11:05:40.811Z,101451.38
2022-10-11T11:08:16.593Z,101453.34
2022-10-11T11:10:55.790Z,101460.66
2022-10-11T11:13:41.404Z,101454.44
2022-10-11T11:16:13.198Z,101449.34
2022-10-11T11:19:03.816Z,101457.81
2022-10-11T11:21:59.344Z,101453.75
2022-10-11T11:24:28.553Z,101452.84
2022-10-11T11:27:23.811Z,101444.25
2022-10-11T11:30:03.456Z,101459.91
2022-10-11T11:32:45.548Z,101494.22
2022-10-11T11:35:43.939Z,101470.97
2022-10-11T11:38:20.890Z,101470.66
2022-10-11T11:40:58.488Z,101469.16
2022-10-11T11:43:39.445Z,101470.00
2022-10-11T11:46:16.001Z,101472.00
2022-10-11T11:48:43.973Z,101484.09
2022-10-11T11:51:26.490Z,101462.00
2022-10-11T11:53:59.096Z,101458.81
2022-10-11T11:56:44.542Z,101472.13
2022-10-11T11:59:14.049Z,101456.25
2022-10-11T12:01:48.025Z,101456.69
2022-10-11T12:04:31.188Z,101511.84
2022-10-11T12:07:18.567Z,101472.22
2022-10-11T12:09:52.654Z,101456.84
2022-10-11T12:12:37.377Z,101470.25
2022-10-11T12:15:10.204Z,101461.28
2022-10-11T12:17:54.779Z,101472.88
2022-10-11T12:20:21.325Z,101483.53
2022-10-11T12:22:53.860Z,101468.66
2022-10-11T12:25:23.872Z,101481.00
2022-10-11T12:27:56.589Z,101508.31
2022-10-11T12:30:48.112Z,101488.00
2022-10-11T12:33:22.764Z,101503.81
2022-10-11T12:35:55.546Z,101496.53
2022-10-11T12:38:39.987Z,101501.63
2022-10-11T12:41:09.477Z,101488.44
2022-10-11T12:44:15.019Z,101478.31
2022-10-11T12:46:57.847Z,101481.41
2022-10-11T12:49:36.850Z,101490.72
2022-10-11T12:52:22.389Z,101489.38
2022-10-11T12:55:01.088Z,101489.03
2022-10-11T12:57:56.081Z,101491.56
2022-10-11T13:00:30.833Z,101496.25
2022-10-11T13:03:33.308Z,101492.75
2022-10-11T13:06:09.995Z,101495.22
2022-10-11T13:08:40.756Z,101501.22
2022-10-11T13:11:17.490Z,101504.56
2022-10-11T13:13:49.118Z,101505.75
2022-10-11T13:16:21.425Z,101513.38
2022-10-11T13:18:53.672Z,101519.66
2022-10-11T13:21:27.175Z,101518.50
2022-10-11T13:24:03.770Z,101506.53
2022-10-11T13:26:31.717Z,101512.44
2022-10-11T13:29:00.192Z,101511.13
2022-10-11T13:31:27.797Z,101516.50
2022-10-11T13:33:56.870Z,101514.69
2022-10-11T13:36:26.924Z,101516.53
2022-10-11T13:38:59.187Z,101514.09
2022-10-11T13:41:28.238Z,101529.97
2022-10-11T13:43:56.770Z,101522.69
2022-10-11T13:46:28.417Z,101515.97
2022-10-11T13:49:06.595Z,101538.09
2022-10-11T13:51:35.495Z,101522.22
2022-10-11T13:54:11.771Z,101529.50
2022-10-11T13:56:49.529Z,101521.38
2022-10-11T13:59:22.926Z,101512.34
2022-10-11T14:01:54.214Z,101512.31
2022-10-11T14:04:22.031Z,101515.78
2022-10-11T14:07:02.412Z,101534.00
2022-10-11T14:09:31.329Z,101502.88
2022-10-11T14:12:29.120Z,101532.94
2022-10-11T14:14:55.679Z,101525.81
2022-10-11T14:17:32.779Z,101534.06
2022-10-11T14:20:11.875Z,101530.56
2022-10-11T14:22:38.947Z,101517.66
2022-10-11T14:25:05.848Z,101525.59
2022-10-11T14:27:32.877Z,101530.09
2022-10-11T14:30:24.658Z,101535.59
2022-10-11T14:32:49.498Z,101534.69
2022-10-11T14:35:18.361Z,101522.38
2022-10-11T14:37:45.927Z,101530.81
2022-10-11T14:40:16.642Z,101537.53
2022-10-11T14:42:43.942Z,101520.03
2022-10-11T14:45:11.122Z,101521.38
2022-10-11T14:47:42.758Z,101522.22
2022-10-11T14:50:37.650Z,101527.28
2022-10-11T14:53:05.882Z,101525.31
2022-10-11T14:55:32.571Z,101538.66
2022-10-11T14:57:59.148Z,101532.00
2022-10-11T15:00:27.647Z,101531.22
2022-10-11T15:02:55.315Z,101525.66
2022-10-11T15:05:24.105Z,101528.47
2022-10-11T15:07:50.862Z,101530.88
2022-10-11T15:10:30.284Z,101538.88
2022-10-11T15:12:58.051Z,101530.88
2022-10-11T15:15:30.347Z,101531.03
2022-10-11T15:17:58.930Z,101536.25
2022-10-11T15:20:35.159Z,101535.69
2022-10-11T15:23:01.842Z,101540.66
2022-10-11T15:25:29.256Z,101538.16
2022-10-11T15:27:56.450Z,101540.22
2022-10-11T15:30:41.887Z,101540.06
2022-10-11T15:33:08.546Z,101541.72
2022-10-11T15:35:35.122Z,101532.81
2022-10-11T15:38:01.707Z,101537.41
2022-10-11T15:40:35.866Z,101540.91
2022-10-11T15:43:03.087Z,101544.09
2022-10-11T15:45:29.723Z,101534.09
2022-10-11T15:47:56.926Z,101538.63
2022-10-11T15:50:43.735Z,101544.53
2022-10-11T15:53:26.328Z,101544.03
2022-10-11T15:55:55.242Z,101542.78
2022-10-11T15:58:27.462Z,101551.75
2022-10-11T16:00:56.001Z,101549.41
2022-10-11T16:03:25.469Z,101552.09
2022-10-11T16:05:53.639Z,101553.59
2022-10-11T16:08:20.821Z,101563.56
2022-10-11T16:10:47.606Z,101566.13
2022-10-11T16:13:14.476Z,101560.63
2022-10-11T16:15:42.969Z,101564.00
2022-10-11T16:18:12.694Z,101563.66
2022-10-11T16:20:44.841Z,101568.09
2022-10-11T16:23:12.841Z,101572.81
2022-10-11T16:25:41.194Z,101564.00
2022-10-11T16:28:09.252Z,101570.13
2022-10-11T16:30:39.509Z,101565.56
2022-10-11T16:33:06.157Z,101569.31
2022-10-11T16:35:32.911Z,101560.28
2022-10-11T16:38:00.918Z,101573.34
2022-10-11T16:40:29.909Z,101561.94
2022-10-11T16:42:56.533Z,101573.75
2022-10-11T16:45:23.508Z,101571.81
2022-10-11T16:47:50.204Z,101575.72
2022-10-11T16:50:16.739Z,101568.72
2022-10-11T16:52:43.281Z,101573.19
2022-10-11T16:55:09.887Z,101581.97
2022-10-11T16:57:37.776Z,101572.34
2022-10-11T17:00:09.206Z,101573.88
2022-10-11T17:02:36.680Z,101578.78
2022-10-11T17:05:03.877Z,101576.19
2022-10-11T17:07:31.299Z,101570.72
2022-10-11T17:09:58.272Z,101575.31
2022-10-11T17:12:24.986Z,101568.03
2022-10-11T17:14:51.541Z,101577.28
2022-10-11T17:17:20.613Z,101566.69
2022-10-11T17:19:47.627Z,101570.28
2022-10-11T17:22:17.668Z,101566.94
2022-10-11T17:24:45.101Z,101578.34
2022-10-11T17:27:11.674Z,101579.06
2022-10-11T17:29:38.688Z,101585.31
2022-10-11T17:32:05.697Z,101580.16
2022-10-11T17:34:32.459Z,101589.41
2022-10-11T17:36:59.098Z,101587.19
2022-10-11T17:39:25.828Z,101594.84
2022-10-11T17:41:52.773Z,101598.00
2022-10-11T17:44:20.096Z,101591.78
2022-10-11T17:46:47.502Z,101601.63
2022-10-11T17:49:14.074Z,101592.63
2022-10-11T17:51:41.578Z,101594.66
2022-10-11T17:54:13.262Z,101600.44
2022-10-11T17:56:41.634Z,101607.31
2022-10-11T17:59:14.384Z,101607.00
2022-10-11T18:01:41.148Z,101608.78
2022-10-11T18:04:13.383Z,101601.03
2022-10-11T18:06:40.097Z,101595.78
2022-10-11T18:09:07.144Z,101604.66
2022-10-11T18:11:34.064Z,101607.22
2022-10-11T18:14:00.841Z,101616.91
2022-10-11T18:16:29.645Z,101610.06
2022-10-11T18:18:57.448Z,101612.84
2022-10-11T18:21:33.726Z,101615.41
2022-10-11T18:24:03.114Z,101621.63
2022-10-11T18:26:30.920Z,101622.63
2022-10-11T18:28:58.655Z,101626.38
2022-10-11T18:31:28.639Z,101633.59
2022-10-11T18:33:55.695Z,101641.72
2022-10-11T18:36:25.561Z,101629.22
2022-10-11T18:38:54.917Z,101628.88
2022-10-11T18:41:23.472Z,101626.16
2022-10-11T18:43:52.130Z,101635.63
2022-10-11T18:46:19.537Z,101634.84
2022-10-11T18:48:48.596Z,101628.97
2022-10-11T18:51:23.857Z,101629.53
2022-10-11T18:53:51.503Z,101628.34
2022-10-11T18:56:21.726Z,101633.34
2022-10-11T18:58:50.254Z,101632.44
2022-10-11T19:01:23.776Z,101633.19
2022-10-11T19:03:53.126Z,101634.63
2022-10-11T19:06:22.497Z,101630.06
2022-10-11T19:08:52.841Z,101643.09
2022-10-11T19:11:25.229Z,101639.16
2022-10-11T19:13:57.185Z,101639.94
2022-10-11T19:16:24.616Z,101648.22
2022-10-11T19:18:52.299Z,101638.44
2022-10-11T19:21:19.617Z,101632.81
2022-10-11T19:23:47.809Z,101641.75
2022-10-11T19:26:18.723Z,101642.31
2022-10-11T19:28:47.053Z,101648.06
2022-10-11T19:31:16.839Z,101650.69
2022-10-11T19:33:45.237Z,101653.28
2022-10-11T19:36:13.933Z,101646.19
2022-10-11T19:38:45.473Z,101647.25
2022-10-11T19:41:13.199Z,101649.06
2022-10-11T19:43:39.824Z,101650.78
2022-10-11T19:46:09.999Z,101645.59
2022-10-11T19:48:42.708Z,101655.06
2022-10-11T19:51:18.619Z,101655.28
2022-10-11T19:53:46.065Z,101653.13
2022-10-11T19:56:15.958Z,101643.44
2022-10-11T19:58:43.020Z,101665.56
2022-10-11T20:01:17.539Z,101656.47
2022-10-11T20:03:47.050Z,101655.81
2022-10-11T20:06:14.439Z,101657.78
2022-10-11T20:08:40.990Z,101654.56
2022-10-11T20:11:09.265Z,101670.28
2022-10-11T20:13:37.268Z,101663.88
2022-10-11T20:16:10.311Z,101663.34
2022-10-11T20:18:37.858Z,101670.31
2022-10-11T20:21:07.769Z,101665.53
2022-10-11T20:23:35.627Z,101667.19
2022-10-11T20:26:15.853Z,101670.44
2022-10-11T20:28:43.797Z,101670.00
2022-10-11T20:31:16.338Z,101673.16
2022-10-11T20:33:42.972Z,101671.09
2022-10-11T20:36:12.062Z,101663.09
2022-10-11T20:38:41.058Z,101669.69
2022-10-11T20:41:22.300Z,101670.72
2022-10-11T20:43:54.281Z,101671.72
2022-10-11T20:46:23.936Z,101683.44
2022-10-11T20:48:55.513Z,101674.53
2022-10-11T20:51:26.302Z,101681.31
2022-10-11T20:53:53.488Z,101681.38
2022-10-11T20:56:21.298Z,101681.00
2022-10-11T20:58:52.132Z,101683.34
2022-10-11T21:01:21.074Z,101689.28
2022-10-11T21:03:47.682Z,101692.59
2022-10-11T21:06:14.429Z,101686.66
2022-10-11T21:08:41.233Z,101694.41
2022-10-11T21:11:08.643Z,101696.47
2022-10-11T21:13:36.037Z,101695.84
2022-10-11T21:16:04.625Z,101696.91
2022-10-11T21:18:31.143Z,101693.59
2022-10-11T21:20:57.760Z,101688.94
2022-10-11T21:23:24.331Z,101691.16
2022-10-11T21:25:51.078Z,101696.91
2022-10-11T21:28:17.655Z,101694.84
2022-10-11T21:30:44.137Z,101695.25
2022-10-11T21:33:13.191Z,101696.44
2022-10-11T21:35:40.393Z,101699.50
2022-10-11T21:38:07.144Z,101700.13
2022-10-11T21:40:37.805Z,101707.03
2022-10-11T21:43:04.406Z,101711.91
2022-10-11T21:45:30.947Z,101712.03
2022-10-11T21:47:57.505Z,101705.28
2022-10-11T21:50:24.065Z,101706.56
2022-10-11T21:52:50.673Z,101701.75
2022-10-11T21:55:17.239Z,101711.38
2022-10-11T21:57:43.902Z,101709.44
2022-10-11T22:00:11.206Z,101719.19
2022-10-11T22:02:40.428Z,101714.41
2022-10-11T22:05:07.105Z,101722.53
2022-10-11T22:07:33.746Z,101722.91
2022-10-11T22:10:00.374Z,101726.69
2022-10-11T22:12:26.895Z,101722.97
2022-10-11T22:14:53.461Z,101721.78
2022-10-11T22:17:20.139Z,101730.13
2022-10-11T22:19:46.678Z,101720.03
2022-10-11T22:22:13.425Z,101728.38
2022-10-11T22:24:40.014Z,101728.56
2022-10-11T22:27:06.605Z,101719.06
2022-10-11T22:29:34.317Z,101718.81
2022-10-11T22:32:01.327Z,101722.50
2022-10-11T22:34:31.702Z,101714.56
2022-10-11T22:36:58.504Z,101720.31
2022-10-11T22:39:25.178Z,101715.22
2022-10-11T22:41:54.422Z,101715.09
2022-10-11T22:44:21.300Z,101706.06
2022-10-11T22:46:47.935Z,101714.97
2022-10-11T22:49:14.459Z,101724.94
2022-10-11T22:51:40.930Z,101711.53
2022-10-11T22:54:07.492Z,101715.34
2022-10-11T22:56:34.033Z,101715.88
2022-10-11T22:59:00.581Z,101717.44
2022-10-11T23:01:27.195Z,101716.47
2022-10-11T23:03:53.930Z,101715.50
2022-10-11T23:06:20.642Z,101712.38
2022-10-11T23:08:47.359Z,101710.53
2022-10-11T23:11:14.022Z,101710.75
2022-10-11T23:13:40.613Z,101710.03
2022-10-11T23:16:09.711Z,101707.97
2022-10-11T23:18:36.842Z,101718.19
2022-10-11T23:21:04.708Z,101716.06
2022-10-11T23:23:31.277Z,101723.56
2022-10-11T23:26:11.527Z,101728.16
2022-10-11T23:28:38.224Z,101722.81
2022-10-11T23:31:11.493Z,101723.72
2022-10-11T23:33:38.509Z,101728.66
2022-10-11T23:36:05.627Z,101731.75
2022-10-11T23:38:32.505Z,101729.16
2022-10-11T23:40:59.379Z,101727.19
2022-10-11T23:43:25.925Z,101722.00
2022-10-11T23:45:54.005Z,101726.75
2022-10-11T23:48:20.555Z,101738.53
2022-10-11T23:50:47.120Z,101732.94
2022-10-11T23:53:13.782Z,101733.13
2022-10-11T23:55:40.597Z,101737.22
2022-10-11T23:58:07.179Z,101734.75
